Weather at El Dorado Substation Airstrip

Public forecast

Using degrees Fahrenheit for public forecast. Weather courtesy of forecast.io.

Closest aviation weather report (METAR) to El Dorado Substation Airstrip

Closest report is Henderson Executive Airport, 12.3 nm (22.8 km) NNW. Retrieved 2021/07/24 23:56 UTC (34 minutes ago):

KHND 242356Z 29004KT 10SM CLR 38/14 A2992 RMK AO2 SLP110 T03830144 10383 20328 56021

Closest aviation forecast (TAF) to El Dorado Substation Airstrip

Closest forecast is Henderson Executive Airport, 12.3 nm (22.8 km) NNW. Retrieved 2021-07-25 00:22 UTC (8 minutes ago):

TAF KHND 242320Z 2500/2524 08007KT P6SM FEW120 SCT150 SCT200 FM250200 12010KT P6SM VCTS SCT100CB BKN150 TEMPO 2502/2505 12020G30KT -TSRA BKN100CB FM250600 17010KT P6SM BKN150 FM251200 VRB05KT P6SM SCT150 FM251900 15008KT P6SM SCT150